Time,TemperatureF,DewpointF,PressureIn,WindDirection,WindDirectionDegrees,WindSpeedMPH,WindSpeedGustMPH,Humidity,HourlyPrecipIn,Conditions,Clouds,dailyrainin,SoftwareType,DateUTC
2013-06-06 00:03:00,75.0,69.4,29.91,West,273,3.0,4.9,83,0.00,,,-99.99,FreeWX 2.05,2013-06-06 04:03:00,
2013-06-06 00:13:00,75.0,69.8,29.91,West,273,3.0,5.4,84,0.00,,,-99.99,FreeWX 2.05,2013-06-06 04:13:00,
2013-06-06 00:23:00,75.0,70.2,29.91,West,273,2.0,4.9,85,0.00,,,-99.99,FreeWX 2.05,2013-06-06 04:23:00,
2013-06-06 00:33:00,74.8,70.0,29.88,West,264,3.0,5.8,85,0.00,,,-99.99,FreeWX 2.05,2013-06-06 04:33:00,
2013-06-06 00:43:00,74.8,70.3,29.88,West,266,4.0,6.7,86,0.00,,,-99.99,FreeWX 2.05,2013-06-06 04:43:00,
2013-06-06 00:53:00,74.7,70.5,29.88,West,272,3.0,6.7,87,0.00,,,-99.99,FreeWX 2.05,2013-06-06 04:53:00,
2013-06-06 01:03:00,74.8,70.7,29.88,West,272,3.0,5.4,87,0.00,,,-99.99,FreeWX 2.05,2013-06-06 05:03:00,
2013-06-06 01:13:00,75.0,71.2,29.88,West,271,4.0,6.3,88,0.00,,,-99.99,FreeWX 2.05,2013-06-06 05:13:00,
2013-06-06 01:23:00,75.0,71.2,29.88,West,261,4.0,6.7,88,0.00,,,-99.99,FreeWX 2.05,2013-06-06 05:23:00,
2013-06-06 01:33:00,75.2,71.4,29.88,West,261,3.0,5.8,88,0.00,,,-99.99,FreeWX 2.05,2013-06-06 05:33:00,
2013-06-06 01:43:00,75.2,71.8,29.88,West,265,3.0,5.8,89,0.00,,,-99.99,FreeWX 2.05,2013-06-06 05:43:00,
2013-06-06 01:53:00,75.4,72.0,29.88,West,270,3.0,6.3,89,0.00,,,-99.99,FreeWX 2.05,2013-06-06 05:53:00,
2013-06-06 02:03:00,75.4,72.0,29.85,West,269,3.0,6.3,89,0.00,,,-99.99,FreeWX 2.05,2013-06-06 06:03:00,
2013-06-06 02:13:00,75.4,72.3,29.85,West,261,3.0,6.3,90,0.00,,,-99.99,FreeWX 2.05,2013-06-06 06:13:00,
2013-06-06 02:23:00,75.4,72.3,29.85,West,268,4.0,6.9,90,0.00,,,-99.99,FreeWX 2.05,2013-06-06 06:23:00,
2013-06-06 02:33:00,75.2,72.1,29.85,West,269,4.0,7.4,90,0.00,,,-99.99,FreeWX 2.05,2013-06-06 06:33:00,
2013-06-06 02:43:00,74.7,71.2,29.85,West,269,4.0,6.3,89,0.00,,,-99.99,FreeWX 2.05,2013-06-06 06:43:00,
2013-06-06 02:53:00,74.7,71.6,29.85,West,276,3.0,5.8,90,0.00,,,-99.99,FreeWX 2.05,2013-06-06 06:53:00,
2013-06-06 03:03:00,74.5,71.1,29.82,West,272,3.0,5.8,89,0.00,,,-99.99,FreeWX 2.05,2013-06-06 07:03:00,
2013-06-06 03:13:00,74.5,71.1,29.82,West,280,3.0,5.4,89,0.00,,,-99.99,FreeWX 2.05,2013-06-06 07:13:00,
2013-06-06 03:23:00,74.7,71.6,29.82,WNW,283,3.0,4.9,90,0.00,,,-99.99,FreeWX 2.05,2013-06-06 07:23:00,
2013-06-06 03:33:00,74.7,71.6,29.82,WNW,289,2.0,4.5,90,0.00,,,-99.99,FreeWX 2.05,2013-06-06 07:33:00,
2013-06-06 03:43:00,74.8,71.8,29.82,West,275,2.0,4.9,90,0.00,,,-99.99,FreeWX 2.05,2013-06-06 07:43:00,
2013-06-06 03:53:00,74.7,71.6,29.82,West,264,2.0,4.5,90,0.00,,,-99.99,FreeWX 2.05,2013-06-06 07:53:00,
2013-06-06 04:03:00,74.8,71.8,29.79,West,264,3.0,6.7,90,0.00,,,-99.99,FreeWX 2.05,2013-06-06 08:03:00,
2013-06-06 04:13:00,74.8,72.0,29.79,West,262,4.0,8.3,91,0.00,,,-99.99,FreeWX 2.05,2013-06-06 08:13:00,
2013-06-06 04:23:00,75.2,72.7,29.79,West,264,4.0,11.2,92,0.00,,,-99.99,FreeWX 2.05,2013-06-06 08:23:00,
2013-06-06 04:33:00,75.0,72.5,29.79,WNW,290,4.0,9.2,92,0.00,,,-99.99,FreeWX 2.05,2013-06-06 08:33:00,
2013-06-06 04:43:00,74.8,72.3,29.79,West,270,4.0,10.1,92,0.00,,,-99.99,FreeWX 2.05,2013-06-06 08:43:00,
2013-06-06 04:53:00,74.1,71.6,29.79,West,260,5.0,8.7,92,0.00,,,-99.99,FreeWX 2.05,2013-06-06 08:53:00,
2013-06-06 05:03:00,74.7,72.5,29.79,West,266,4.0,8.7,93,0.00,,,-99.99,FreeWX 2.05,2013-06-06 09:03:00,
2013-06-06 05:13:00,74.8,72.7,29.79,West,267,4.0,7.4,93,0.00,,,-99.99,FreeWX 2.05,2013-06-06 09:13:00,
2013-06-06 05:23:00,74.7,72.5,29.79,West,275,3.0,5.8,93,0.00,,,-99.99,FreeWX 2.05,2013-06-06 09:23:00,
2013-06-06 05:33:00,74.5,72.3,29.79,West,278,3.0,4.9,93,0.00,,,-99.99,FreeWX 2.05,2013-06-06 09:33:00,
2013-06-06 05:43:00,74.5,72.3,29.79,West,269,2.0,4.5,93,0.00,,,-99.99,FreeWX 2.05,2013-06-06 09:43:00,
2013-06-06 05:53:00,74.3,72.1,29.76,West,262,2.0,5.4,93,0.00,,,-99.99,FreeWX 2.05,2013-06-06 09:53:00,
2013-06-06 06:03:00,74.1,72.0,29.76,West,267,3.0,4.9,93,0.04,,,-99.99,FreeWX 2.05,2013-06-06 10:03:00,
2013-06-06 06:13:00,74.3,72.5,29.76,West,275,3.0,5.4,94,0.08,,,-99.99,FreeWX 2.05,2013-06-06 10:13:00,
2013-06-06 06:23:00,74.3,72.5,29.76,West,269,2.0,4.9,94,0.08,,,-99.99,FreeWX 2.05,2013-06-06 10:23:00,
2013-06-06 06:33:00,74.3,72.5,29.76,West,273,3.0,6.3,94,0.08,,,-99.99,FreeWX 2.05,2013-06-06 10:33:00,
2013-06-06 06:43:00,74.3,72.5,29.76,West,275,3.0,5.8,94,0.08,,,-99.99,FreeWX 2.05,2013-06-06 10:43:00,
2013-06-06 06:53:00,74.3,72.7,29.74,West,278,2.0,4.5,95,0.08,,,-99.99,FreeWX 2.05,2013-06-06 10:53:00,
2013-06-06 07:03:00,74.3,72.5,29.74,West,281,2.0,5.4,94,0.00,,,-99.99,FreeWX 2.05,2013-06-06 11:03:00,
2013-06-06 07:13:00,74.1,72.5,29.74,West,271,3.0,6.3,95,0.00,,,-99.99,FreeWX 2.05,2013-06-06 11:13:00,
2013-06-06 07:23:00,74.1,72.5,29.74,West,278,4.0,8.3,95,0.00,,,-99.99,FreeWX 2.05,2013-06-06 11:23:00,
2013-06-06 07:33:00,74.1,72.9,29.74,West,278,4.0,8.7,96,0.00,,,-99.99,FreeWX 2.05,2013-06-06 11:33:00,
2013-06-06 07:43:00,73.9,72.7,29.74,WNW,302,4.0,6.7,96,0.00,,,-99.99,FreeWX 2.05,2013-06-06 11:43:00,
2013-06-06 07:53:00,73.9,72.7,29.76,WNW,285,4.0,6.9,96,0.00,,,-99.99,FreeWX 2.05,2013-06-06 11:53:00,
2013-06-06 08:03:00,73.9,72.7,29.76,WNW,298,4.0,8.7,96,0.00,,,-99.99,FreeWX 2.05,2013-06-06 12:03:00,
2013-06-06 08:13:00,73.9,72.7,29.76,West,274,4.0,6.3,96,0.00,,,-99.99,FreeWX 2.05,2013-06-06 12:13:00,
2013-06-06 08:23:00,73.9,72.7,29.76,West,280,3.0,4.9,96,0.00,,,-99.99,FreeWX 2.05,2013-06-06 12:23:00,
2013-06-06 08:33:00,73.8,72.5,29.76,West,279,3.0,5.8,96,0.00,,,-99.99,FreeWX 2.05,2013-06-06 12:33:00,
2013-06-06 08:43:00,73.8,72.9,29.76,WNW,290,4.0,6.7,97,0.00,,,-99.99,FreeWX 2.05,2013-06-06 12:43:00,
2013-06-06 08:53:00,73.6,72.3,29.76,WNW,291,4.0,6.9,96,0.00,,,-99.99,FreeWX 2.05,2013-06-06 12:53:00,
2013-06-06 09:03:00,73.6,72.7,29.76,West,278,4.0,6.7,97,0.00,,,-99.99,FreeWX 2.05,2013-06-06 13:03:00,
2013-06-06 09:13:00,73.4,72.5,29.76,WNW,288,4.0,6.9,97,0.00,,,-99.99,FreeWX 2.05,2013-06-06 13:13:00,
2013-06-06 09:23:00,73.6,72.7,29.74,West,278,4.0,8.3,97,0.00,,,-99.99,FreeWX 2.05,2013-06-06 13:23:00,
2013-06-06 09:33:00,73.8,73.8,29.74,West,270,5.0,8.3,100,0.00,,,-99.99,FreeWX 2.05,2013-06-06 13:33:00,
2013-06-06 09:43:00,73.9,73.9,29.74,WNW,287,4.0,7.8,100,0.00,,,-99.99,FreeWX 2.05,2013-06-06 13:43:00,
2013-06-06 09:53:00,74.1,74.1,29.74,NW,304,4.0,7.8,100,0.00,,,-99.99,FreeWX 2.05,2013-06-06 13:53:00,
2013-06-06 10:03:00,74.3,74.3,29.74,NW,320,4.0,8.3,100,0.00,,,-99.99,FreeWX 2.05,2013-06-06 14:03:00,
2013-06-06 10:13:00,74.3,74.3,29.74,NNW,328,4.0,7.4,100,0.00,,,-99.99,FreeWX 2.05,2013-06-06 14:13:00,
2013-06-06 10:23:00,74.3,74.3,29.74,NW,320,4.0,8.7,100,0.00,,,-99.99,FreeWX 2.05,2013-06-06 14:23:00,
2013-06-06 10:33:00,74.5,74.5,29.74,NNW,334,5.0,8.7,100,0.00,,,-99.99,FreeWX 2.05,2013-06-06 14:33:00,
2013-06-06 10:43:00,74.7,74.7,29.74,NW,324,4.0,7.4,100,0.00,,,-99.99,FreeWX 2.05,2013-06-06 14:43:00,
2013-06-06 10:53:00,74.8,74.8,29.74,NNW,332,4.0,11.0,100,0.00,,,-99.99,FreeWX 2.05,2013-06-06 14:53:00,
2013-06-06 11:03:00,75.0,75.0,29.71,NNW,339,4.0,7.8,100,0.00,,,-99.99,FreeWX 2.05,2013-06-06 15:03:00,
2013-06-06 11:13:00,74.5,74.5,29.71,NNE,18,3.0,17.7,100,0.00,,,-99.99,FreeWX 2.05,2013-06-06 15:13:00,
2013-06-06 11:23:00,73.9,73.9,29.71,NE,53,7.0,13.4,100,0.00,,,-99.99,FreeWX 2.05,2013-06-06 15:23:00,
2013-06-06 11:33:00,74.8,74.8,29.71,NE,37,6.0,13.4,100,0.00,,,-99.99,FreeWX 2.05,2013-06-06 15:33:00,
2013-06-06 11:43:00,74.8,74.8,29.71,SSW,212,6.0,11.2,100,0.00,,,-99.99,FreeWX 2.05,2013-06-06 15:43:00,
2013-06-06 11:53:00,75.2,75.2,29.74,WSW,246,7.0,13.0,100,0.00,,,-99.99,FreeWX 2.05,2013-06-06 15:53:00,
2013-06-06 12:03:00,75.2,75.2,29.71,WNW,297,7.0,14.8,100,0.00,,,-99.99,FreeWX 2.05,2013-06-06 16:03:00,
2013-06-06 12:13:00,75.7,75.7,29.71,NW,321,7.0,15.4,100,0.00,,,-99.99,FreeWX 2.05,2013-06-06 16:13:00,
2013-06-06 12:23:00,75.6,75.6,29.71,NNW,328,8.0,15.4,100,0.00,,,-99.99,FreeWX 2.05,2013-06-06 16:23:00,
2013-06-06 12:33:00,75.9,75.9,29.71,NNW,337,7.0,14.3,100,0.00,,,-99.99,FreeWX 2.05,2013-06-06 16:33:00,
2013-06-06 12:43:00,76.6,76.6,29.71,NNW,334,7.0,18.1,100,0.00,,,-99.99,FreeWX 2.05,2013-06-06 16:43:00,
2013-06-06 12:53:00,77.0,77.0,29.71,NNW,334,8.0,15.9,100,0.00,,,-99.99,FreeWX 2.05,2013-06-06 16:53:00,
2013-06-06 13:03:00,77.2,77.2,29.71,NNW,337,7.0,15.4,100,0.00,,,-99.99,FreeWX 2.05,2013-06-06 17:03:00,
2013-06-06 13:13:00,77.7,77.7,29.71,NNW,340,8.0,15.4,100,0.00,,,-99.99,FreeWX 2.05,2013-06-06 17:13:00,
2013-06-06 13:23:00,78.3,77.4,29.71,NNW,338,6.0,17.7,97,0.00,,,-99.99,FreeWX 2.05,2013-06-06 17:23:00,
2013-06-06 13:33:00,78.3,76.5,29.71,NNW,342,7.0,14.8,94,0.00,,,-99.99,FreeWX 2.05,2013-06-06 17:33:00,
2013-06-06 13:43:00,78.4,75.2,29.71,NNW,341,6.0,15.4,90,0.00,,,-99.99,FreeWX 2.05,2013-06-06 17:43:00,
2013-06-06 14:03:00,79.5,71.6,29.71,NNW,340,8.0,14.3,77,0.00,,,-99.99,FreeWX 2.05,2013-06-06 18:03:00,
2013-06-06 14:23:00,79.5,68.4,29.68,NNW,342,8.0,16.3,69,0.00,,,-99.99,FreeWX 2.05,2013-06-06 18:23:00,
2013-06-06 14:33:00,79.5,67.6,29.68,NNW,338,8.0,15.4,67,0.00,,,-99.99,FreeWX 2.05,2013-06-06 18:33:00,
2013-06-06 14:43:00,21.2,-26.7,29.68,NNW,338,8.0,21.5,10,0.00,,,-99.99,FreeWX 2.05,2013-06-06 18:43:00,
2013-06-06 15:03:00,21.2,-26.7,29.71,NNW,337,9.0,17.2,10,0.00,,,-99.99,FreeWX 2.05,2013-06-06 19:03:00,
2013-06-06 15:13:00,79.3,66.6,29.71,NNW,339,9.0,15.2,65,0.00,,,-99.99,FreeWX 2.05,2013-06-06 19:13:00,
2013-06-06 15:23:00,79.2,65.8,29.68,NNW,338,8.0,15.4,64,0.00,,,-99.99,FreeWX 2.05,2013-06-06 19:23:00,
2013-06-06 15:33:00,79.3,66.0,29.68,NNW,336,8.0,16.8,64,0.00,,,-99.99,FreeWX 2.05,2013-06-06 19:33:00,
2013-06-06 15:43:00,79.5,65.8,29.68,NNW,340,8.0,16.8,63,0.00,,,-99.99,FreeWX 2.05,2013-06-06 19:43:00,
2013-06-06 15:53:00,79.9,65.1,29.68,NNW,338,9.0,18.6,61,0.00,,,-99.99,FreeWX 2.05,2013-06-06 19:53:00,
2013-06-06 16:03:00,79.9,64.8,29.68,NNW,340,9.0,18.6,60,0.00,,,-99.99,FreeWX 2.05,2013-06-06 20:03:00,
2013-06-06 16:13:00,80.1,65.3,29.68,NNW,340,8.0,16.3,61,0.00,,,-99.99,FreeWX 2.05,2013-06-06 20:13:00,
2013-06-06 16:23:00,80.4,65.3,29.68,NNW,340,8.0,17.7,60,0.00,,,-99.99,FreeWX 2.05,2013-06-06 20:23:00,
2013-06-06 16:33:00,80.6,64.9,29.68,NNW,341,9.0,21.0,59,0.00,,,-99.99,FreeWX 2.05,2013-06-06 20:33:00,
2013-06-06 16:43:00,80.6,63.5,29.68,NNW,340,10.0,20.6,56,0.04,,,-99.99,FreeWX 2.05,2013-06-06 20:43:00,
2013-06-06 16:53:00,80.4,63.3,29.68,NNW,341,9.0,17.2,56,0.08,,,-99.99,FreeWX 2.05,2013-06-06 20:53:00,
2013-06-06 17:03:00,80.2,62.1,29.68,NNW,340,7.0,15.2,54,0.08,,,-99.99,FreeWX 2.05,2013-06-06 21:03:00,
2013-06-06 17:13:00,79.7,59.9,29.68,NNW,339,10.0,19.5,51,0.08,,,-99.99,FreeWX 2.05,2013-06-06 21:13:00,
2013-06-06 17:23:00,79.5,59.7,29.71,NNW,337,8.0,16.8,51,0.08,,,-99.99,FreeWX 2.05,2013-06-06 21:23:00,
2013-06-06 17:43:00,79.3,59.5,29.71,NNW,337,8.0,19.0,51,0.04,,,-99.99,FreeWX 2.05,2013-06-06 21:43:00,
2013-06-06 17:53:00,79.0,58.6,29.71,NNW,337,8.0,17.7,50,0.00,,,-99.99,FreeWX 2.05,2013-06-06 21:53:00,
2013-06-06 18:03:00,79.2,58.3,29.71,NNW,337,8.0,18.6,49,0.00,,,-99.99,FreeWX 2.05,2013-06-06 22:03:00,
2013-06-06 18:13:00,79.2,58.3,29.71,NNW,337,8.0,15.9,49,0.12,,,-99.99,FreeWX 2.05,2013-06-06 22:13:00,
2013-06-06 18:23:00,78.8,57.4,29.71,NNW,338,6.0,12.5,48,0.12,,,-99.99,FreeWX 2.05,2013-06-06 22:23:00,
2013-06-06 18:33:00,78.8,57.4,29.71,NNW,344,8.0,13.0,48,0.12,,,-99.99,FreeWX 2.05,2013-06-06 22:33:00,
2013-06-06 18:43:00,78.6,57.9,29.71,North,349,7.0,14.3,49,0.16,,,-99.99,FreeWX 2.05,2013-06-06 22:43:00,
2013-06-06 18:53:00,78.6,58.5,29.74,WSW,252,6.0,12.1,50,0.16,,,-99.99,FreeWX 2.05,2013-06-06 22:53:00,
2013-06-06 19:03:00,78.3,58.6,29.71,West,266,6.0,12.5,51,0.31,,,-99.99,FreeWX 2.05,2013-06-06 23:03:00,
2013-06-06 19:13:00,78.1,59.0,29.71,West,278,7.0,15.4,52,0.28,,,-99.99,FreeWX 2.05,2013-06-06 23:13:00,
2013-06-06 19:23:00,78.1,59.5,29.74,SSW,199,5.0,11.6,53,0.31,,,-99.99,FreeWX 2.05,2013-06-06 23:23:00,
2013-06-06 19:33:00,78.3,60.3,29.74,South,191,6.0,11.2,54,0.31,,,-99.99,FreeWX 2.05,2013-06-06 23:33:00,
2013-06-06 19:43:00,77.9,59.9,29.74,South,190,6.0,12.1,54,0.28,,,-99.99,FreeWX 2.05,2013-06-06 23:43:00,
2013-06-06 19:53:00,77.9,59.9,29.74,SSE,156,4.0,13.9,54,0.28,,,-99.99,FreeWX 2.05,2013-06-06 23:53:00,
2013-06-06 20:03:00,77.7,60.3,29.74,SSE,149,6.0,11.6,55,0.12,,,-99.99,FreeWX 2.05,2013-06-07 00:03:00,
2013-06-06 20:13:00,77.7,60.8,29.74,SE,144,5.0,10.1,56,0.08,,,-99.99,FreeWX 2.05,2013-06-07 00:13:00,
2013-06-06 20:33:00,77.4,61.3,29.76,SSE,149,5.0,11.0,58,0.08,,,-99.99,FreeWX 2.05,2013-06-07 00:33:00,
2013-06-06 20:43:00,77.2,61.7,29.76,SE,144,5.0,11.0,59,0.08,,,-99.99,FreeWX 2.05,2013-06-07 00:43:00,
2013-06-06 21:03:00,77.2,62.2,29.76,SSE,155,5.0,12.5,60,0.04,,,-99.99,FreeWX 2.05,2013-06-07 01:03:00,
2013-06-06 21:13:00,77.2,62.2,29.76,SSE,159,5.0,10.1,60,0.04,,,-99.99,FreeWX 2.05,2013-06-07 01:13:00,
2013-06-06 21:23:00,77.2,62.2,29.76,SSE,151,4.0,9.6,60,0.04,,,-99.99,FreeWX 2.05,2013-06-07 01:23:00,
2013-06-06 21:33:00,77.2,62.2,29.76,SSE,149,5.0,9.6,60,0.00,,,-99.99,FreeWX 2.05,2013-06-07 01:33:00,
2013-06-06 22:13:00,77.2,63.5,29.79,SSE,157,6.0,13.0,63,0.08,,,-99.99,FreeWX 2.05,2013-06-07 02:13:00,
2013-06-06 22:23:00,77.4,64.2,29.79,SSE,154,4.0,11.0,64,0.08,,,-99.99,FreeWX 2.05,2013-06-07 02:23:00,
2013-06-06 22:33:00,77.4,64.2,29.82,SE,141,4.0,10.5,64,0.08,,,-99.99,FreeWX 2.05,2013-06-07 02:33:00,
2013-06-06 22:43:00,77.4,64.2,29.82,SSE,154,5.0,11.2,64,0.04,,,-99.99,FreeWX 2.05,2013-06-07 02:43:00,
2013-06-06 22:53:00,77.0,63.9,29.82,SSE,152,4.0,11.0,64,0.04,,,-99.99,FreeWX 2.05,2013-06-07 02:53:00,
2013-06-06 23:03:00,77.2,64.4,29.82,SSE,161,5.0,10.1,65,0.04,,,-99.99,FreeWX 2.05,2013-06-07 03:03:00,
2013-06-06 23:13:00,77.0,64.4,29.82,SSE,152,4.0,10.5,65,0.00,,,-99.99,FreeWX 2.05,2013-06-07 03:13:00,
2013-06-06 23:23:00,76.8,64.2,29.82,SSE,147,4.0,9.6,65,0.00,,,-99.99,FreeWX 2.05,2013-06-07 03:23:00,
2013-06-06 23:53:00,76.8,63.7,29.82,SSE,159,4.0,11.0,64,0.12,,,-99.99,FreeWX 2.05,2013-06-07 03:53:00,